Time;durP1;ratioP1;P1;durP2;ratioP2;P2;SDS_P1;SDS_P2;PMS_P1;PMS_P2;Temp;Humidity;BMP_temperature;BMP_pressure;BME280_temperature;BME280_humidity;BME280_pressure;Samples;Min_cycle;Max_cycle;Signal;HPM_P1;HPM_P2
2021/05/07 00:02:03;;;;;;;3.03;0.88;;;10.70;73.40;;;;;;4948656;29;20036;-65
2021/05/07 00:04:28;;;;;;;4.03;0.90;;;10.70;73.30;;;;;;4930474;29;20047;-65
2021/05/07 00:06:54;;;;;;;3.63;0.70;;;10.60;73.10;;;;;;4946789;29;20063;-65
2021/05/07 00:09:19;;;;;;;2.45;0.70;;;10.70;73.10;;;;;;4946620;29;20046;-66
2021/05/07 00:11:45;;;;;;;3.00;0.75;;;10.70;72.60;;;;;;4946548;29;20034;-66
2021/05/07 00:14:11;;;;;;;1.45;0.60;;;10.70;71.60;;;;;;4948441;29;20079;-65
2021/05/07 00:16:37;;;;;;;1.92;0.60;;;10.50;70.60;;;;;;4929930;29;20039;-66
2021/05/07 00:19:05;;;;;;;1.63;0.52;;;10.60;71.50;;;;;;4946330;29;20028;-66
2021/05/07 00:21:32;;;;;;;0.80;0.50;;;10.50;70.80;;;;;;4946283;29;20095;-66
2021/05/07 00:23:58;;;;;;;0.60;0.40;;;10.50;71.30;;;;;;4946269;29;20082;-65
2021/05/07 00:26:23;;;;;;;0.95;0.50;;;10.60;71.10;;;;;;4948191;29;20035;-65
2021/05/07 00:28:49;;;;;;;1.27;0.60;;;10.50;71.40;;;;;;4946091;29;20300;-66
2021/05/07 00:31:16;;;;;;;3.67;0.60;;;10.50;71.50;;;;;;4946128;29;20040;-65
2021/05/07 00:33:42;;;;;;;1.48;0.70;;;10.50;71.90;;;;;;4945784;29;20048;-66
2021/05/07 00:36:07;;;;;;;2.58;0.70;;;10.40;72.00;;;;;;4946075;29;20439;-65
2021/05/07 00:38:33;;;;;;;2.00;0.50;;;10.40;71.80;;;;;;4946029;29;20239;-65
2021/05/07 00:40:59;;;;;;;1.10;0.50;;;10.40;71.90;;;;;;4947946;29;20027;-65
2021/05/07 00:43:25;;;;;;;1.13;0.57;;;10.40;72.50;;;;;;4946440;29;20219;-65
2021/05/07 00:45:51;;;;;;;1.35;0.60;;;10.40;72.40;;;;;;4946409;29;20219;-65
2021/05/07 00:48:17;;;;;;;2.53;0.70;;;10.50;71.90;;;;;;4897722;29;20032;-65
2021/05/07 00:50:43;;;;;;;3.08;0.60;;;10.50;72.30;;;;;;4929104;29;20024;-65
2021/05/07 00:53:09;;;;;;;2.88;0.73;;;10.50;72.80;;;;;;4947391;29;20370;-65
2021/05/07 00:55:35;;;;;;;2.33;0.63;;;10.50;72.60;;;;;;4929315;29;20083;-65
2021/05/07 00:58:01;;;;;;;2.17;0.63;;;10.40;72.60;;;;;;4946314;29;20035;-65
2021/05/07 01:00:27;;;;;;;0.38;0.38;;;10.40;72.40;;;;;;4945588;29;20079;-65
2021/05/07 01:02:52;;;;;;;0.65;0.40;;;10.30;73.10;;;;;;4945740;29;20099;-65
2021/05/07 01:05:20;;;;;;;1.48;0.60;;;10.30;73.00;;;;;;4947528;29;20079;-65
2021/05/07 01:07:46;;;;;;;1.55;0.50;;;10.40;72.90;;;;;;4946347;29;20040;-65
2021/05/07 01:10:12;;;;;;;1.15;0.60;;;10.50;73.00;;;;;;4945503;29;20066;-66
2021/05/07 01:12:38;;;;;;;0.98;0.40;;;10.50;72.80;;;;;;4945619;29;20032;-65
2021/05/07 01:15:11;;;;;;;1.00;0.50;;;10.40;72.60;;;;;;4945391;29;20036;-66
2021/05/07 01:17:39;;;;;;;4.22;0.50;;;10.40;72.90;;;;;;4945311;29;20103;-65
2021/05/07 01:20:21;;;;;;;0.88;0.43;;;10.40;72.70;;;;;;4930418;29;20098;-65
2021/05/07 01:22:51;;;;;;;0.60;0.40;;;10.40;72.50;;;;;;4945886;29;20051;-65
2021/05/07 01:25:21;;;;;;;0.85;0.40;;;10.50;72.70;;;;;;4945739;29;20326;-65
2021/05/07 01:27:47;;;;;;;2.40;0.50;;;10.40;72.40;;;;;;4945322;29;20074;-65
2021/05/07 01:30:23;;;;;;;1.63;0.60;;;10.40;72.40;;;;;;4945184;29;20043;-65
2021/05/07 01:32:49;;;;;;;0.75;0.50;;;10.40;72.40;;;;;;4945287;29;20244;-65
2021/05/07 01:35:18;;;;;;;1.88;0.50;;;10.40;72.50;;;;;;4947317;29;20047;-66
2021/05/07 01:37:45;;;;;;;1.77;0.50;;;10.50;72.50;;;;;;4945388;29;20054;-65
2021/05/07 01:40:18;;;;;;;1.35;0.60;;;10.50;72.40;;;;;;4945278;29;20062;-65
2021/05/07 01:42:44;;;;;;;1.02;0.40;;;10.50;72.50;;;;;;4945465;29;20042;-65
2021/05/07 01:45:10;;;;;;;4.35;0.60;;;10.50;72.20;;;;;;4944728;29;20059;-65
2021/05/07 01:47:36;;;;;;;2.15;0.70;;;10.50;72.50;;;;;;4945000;29;20066;-65
2021/05/07 01:50:05;;;;;;;1.52;0.68;;;10.50;72.10;;;;;;4929699;29;20048;-65
2021/05/07 01:52:31;;;;;;;0.95;0.60;;;10.60;71.90;;;;;;4945311;29;20045;-65
2021/05/07 01:54:56;;;;;;;0.90;0.50;;;10.50;71.90;;;;;;4945271;29;20052;-65
2021/05/07 01:57:27;;;;;;;1.88;0.60;;;10.50;72.30;;;;;;4945076;29;20046;-65
2021/05/07 01:59:53;;;;;;;;;;;10.50;72.30;;;;;;4945429;29;20067;-65
2021/05/07 02:02:19;;;;;;;1.83;0.60;;;10.50;72.10;;;;;;4946540;29;19903;-65
2021/05/07 02:04:44;;;;;;;2.42;0.70;;;10.40;72.20;;;;;;4945416;29;20040;-65
2021/05/07 02:07:10;;;;;;;2.03;0.70;;;10.40;72.60;;;;;;4944874;29;20040;-65
2021/05/07 02:09:35;;;;;;;2.35;0.70;;;10.50;72.30;;;;;;4944950;29;20042;-65
2021/05/07 02:12:01;;;;;;;2.28;0.65;;;10.50;72.20;;;;;;4945053;29;20036;-65
2021/05/07 02:14:26;;;;;;;0.80;0.50;;;10.50;72.10;;;;;;4913683;29;20031;-65
2021/05/07 02:16:52;;;;;;;1.30;0.63;;;10.40;72.10;;;;;;4945726;29;20350;-65
2021/05/07 02:19:17;;;;;;;2.85;0.70;;;10.40;72.30;;;;;;4945209;29;20042;-65
2021/05/07 02:21:42;;;;;;;1.83;0.60;;;10.40;72.30;;;;;;4945008;29;20036;-65
2021/05/07 02:24:11;;;;;;;2.45;0.80;;;10.40;72.40;;;;;;4944931;29;20032;-65
2021/05/07 02:26:36;;;;;;;1.50;0.63;;;10.50;71.80;;;;;;4944732;29;20055;-66
2021/05/07 02:29:02;;;;;;;2.83;0.68;;;10.50;71.50;;;;;;4946596;29;20060;-65
2021/05/07 02:31:28;;;;;;;2.10;0.80;;;10.50;71.30;;;;;;4945305;29;20070;-65
2021/05/07 02:33:53;;;;;;;2.17;0.68;;;10.50;71.90;;;;;;4944968;29;20055;-66
2021/05/07 02:36:19;;;;;;;1.88;0.45;;;10.40;71.90;;;;;;4944791;29;20082;-66
2021/05/07 02:38:44;;;;;;;1.15;0.60;;;10.50;71.70;;;;;;4944912;29;20040;-65
2021/05/07 02:41:10;;;;;;;1.58;0.60;;;10.50;71.80;;;;;;4946241;29;20086;-64
2021/05/07 02:43:35;;;;;;;0.93;0.50;;;10.60;71.60;;;;;;4945002;29;20110;-66
2021/05/07 02:46:01;;;;;;;1.30;0.60;;;10.50;71.30;;;;;;4944950;29;20043;-64
2021/05/07 02:48:26;;;;;;;2.22;0.60;;;10.50;71.50;;;;;;4944489;29;20040;-64
2021/05/07 02:50:52;;;;;;;2.05;0.60;;;10.50;70.80;;;;;;4944370;29;20040;-64
2021/05/07 02:53:17;;;;;;;2.97;0.60;;;10.50;71.30;;;;;;4946391;29;20039;-65
2021/05/07 02:55:43;;;;;;;1.17;0.60;;;10.40;70.90;;;;;;4945705;29;20259;-65
2021/05/07 02:58:08;;;;;;;1.55;0.40;;;10.40;71.30;;;;;;4947860;29;20046;-65
2021/05/07 03:00:34;;;;;;;2.20;0.70;;;10.40;70.90;;;;;;4947964;29;20047;-65
2021/05/07 03:03:00;;;;;;;1.45;0.60;;;10.40;71.00;;;;;;4948105;29;20090;-66
2021/05/07 03:05:25;;;;;;;1.05;0.50;;;10.40;71.40;;;;;;4949379;29;20063;-65
2021/05/07 03:07:51;;;;;;;1.88;0.60;;;10.50;71.10;;;;;;4948314;29;20068;-65
2021/05/07 03:10:16;;;;;;;1.20;0.50;;;10.40;70.20;;;;;;4947592;29;20048;-65
2021/05/07 03:12:42;;;;;;;1.95;1.33;;;10.40;70.40;;;;;;4947735;29;20051;-65
2021/05/07 03:15:08;;;;;;;0.93;0.45;;;10.40;70.50;;;;;;4948008;29;20058;-65
2021/05/07 03:17:33;;;;;;;1.83;0.50;;;10.40;70.50;;;;;;4948321;29;20301;-65
2021/05/07 03:19:59;;;;;;;1.73;0.60;;;10.40;70.30;;;;;;4949508;29;20035;-65
2021/05/07 03:22:24;;;;;;;1.25;0.50;;;10.40;70.50;;;;;;4947742;29;20044;-65
2021/05/07 03:24:50;;;;;;;1.67;0.57;;;10.40;70.40;;;;;;4947837;29;20043;-66
2021/05/07 03:27:17;;;;;;;2.50;0.70;;;10.40;70.50;;;;;;4947305;29;20036;-65
2021/05/07 03:29:42;;;;;;;1.77;0.60;;;10.50;70.70;;;;;;4947813;29;20036;-65
2021/05/07 03:32:08;;;;;;;1.30;0.65;;;10.50;70.40;;;;;;4948959;29;20032;-65
2021/05/07 03:34:33;;;;;;;3.50;0.70;;;10.40;70.00;;;;;;4947567;29;20040;-66
2021/05/07 03:36:59;;;;;;;2.55;0.60;;;10.40;70.70;;;;;;4947177;29;20040;-66
2021/05/07 03:39:24;;;;;;;1.73;0.52;;;10.40;70.20;;;;;;4947276;29;20036;-65
2021/05/07 03:41:50;;;;;;;1.90;0.50;;;10.40;70.80;;;;;;4947142;29;20032;-65
2021/05/07 03:44:15;;;;;;;1.02;0.50;;;10.40;70.60;;;;;;4949025;29;20055;-65
2021/05/07 03:46:41;;;;;;;1.38;0.50;;;10.40;70.60;;;;;;4947785;29;20103;-65
2021/05/07 03:49:06;;;;;;;1.08;0.60;;;10.40;70.90;;;;;;4947383;29;20036;-65
2021/05/07 03:51:32;;;;;;;3.08;0.70;;;10.50;71.10;;;;;;4946883;29;20075;-65
2021/05/07 03:53:57;;;;;;;1.83;0.82;;;10.40;71.10;;;;;;4947165;29;20103;-65
2021/05/07 03:56:23;;;;;;;2.10;0.70;;;10.40;71.40;;;;;;4948467;29;20099;-65
2021/05/07 03:58:48;;;;;;;2.55;0.70;;;10.40;71.90;;;;;;4947150;29;20251;-65
2021/05/07 04:01:14;;;;;;;3.08;0.80;;;10.40;71.50;;;;;;4947126;29;20111;-65
2021/05/07 04:03:39;;;;;;;1.77;0.60;;;10.40;71.80;;;;;;4946859;29;20047;-65
2021/05/07 04:06:07;;;;;;;2.13;0.70;;;10.50;71.70;;;;;;4946288;29;20087;-65
2021/05/07 04:08:36;;;;;;;3.08;0.80;;;10.50;71.70;;;;;;4945967;29;20218;-65
2021/05/07 04:11:07;;;;;;;1.83;0.70;;;10.50;71.60;;;;;;4948466;29;20227;-65
2021/05/07 04:13:38;;;;;;;3.38;0.90;;;10.40;71.80;;;;;;4947152;29;20219;-65
2021/05/07 04:16:04;;;;;;;;;;;10.40;71.50;;;;;;4947351;29;20040;-65
2021/05/07 04:18:29;;;;;;;2.40;0.70;;;10.40;71.50;;;;;;4946690;29;20190;-65
2021/05/07 04:20:55;;;;;;;3.65;0.85;;;10.40;71.30;;;;;;4946590;29;20211;-65
2021/05/07 04:23:21;;;;;;;2.28;0.90;;;10.50;71.20;;;;;;4948322;29;20039;-66
2021/05/07 04:25:46;;;;;;;3.63;0.90;;;10.40;71.20;;;;;;4946833;29;20040;-65
2021/05/07 04:28:12;;;;;;;2.17;0.68;;;10.40;71.50;;;;;;4946506;29;20036;-65
2021/05/07 04:30:37;;;;;;;4.03;0.90;;;10.40;71.00;;;;;;4946196;29;20071;-65
2021/05/07 04:33:04;;;;;;;3.42;0.93;;;10.30;71.50;;;;;;4946193;29;20095;-65
2021/05/07 04:35:29;;;;;;;2.80;0.80;;;10.40;71.40;;;;;;4946380;29;20039;-65
2021/05/07 04:37:55;;;;;;;3.50;0.77;;;10.40;71.60;;;;;;4947697;29;20060;-66
2021/05/07 04:40:20;;;;;;;2.88;0.82;;;10.40;71.50;;;;;;4946506;29;20040;-65
2021/05/07 04:42:46;;;;;;;3.30;1.15;;;10.40;71.70;;;;;;4945947;29;20047;-65
2021/05/07 04:45:12;;;;;;;2.78;0.90;;;10.40;71.50;;;;;;4946217;29;20031;-65
2021/05/07 04:47:37;;;;;;;3.08;0.95;;;10.30;71.90;;;;;;4945977;29;20055;-65
2021/05/07 04:50:06;;;;;;;4.70;1.23;;;10.30;72.00;;;;;;4947700;29;20035;-65
2021/05/07 04:52:32;;;;;;;3.25;0.90;;;10.30;72.20;;;;;;4946307;29;20102;-65
2021/05/07 04:54:58;;;;;;;2.45;0.90;;;10.30;72.30;;;;;;4945940;29;20043;-65
2021/05/07 04:57:24;;;;;;;4.60;0.98;;;10.40;72.10;;;;;;4945630;29;20059;-65
2021/05/07 04:59:50;;;;;;;3.72;1.25;;;10.40;71.70;;;;;;4945686;29;20208;-66
2021/05/07 05:02:15;;;;;;;4.57;1.00;;;10.40;71.80;;;;;;4947247;29;20054;-66
2021/05/07 05:04:41;;;;;;;2.65;0.90;;;10.40;71.80;;;;;;4945822;29;20031;-65
2021/05/07 05:07:07;;;;;;;3.53;0.90;;;10.40;72.10;;;;;;4928553;29;20043;-65
2021/05/07 05:09:34;;;;;;;2.53;0.90;;;10.40;72.00;;;;;;4945682;29;20043;-65
2021/05/07 05:11:59;;;;;;;2.60;0.82;;;10.40;72.10;;;;;;4946034;29;20378;-65
2021/05/07 05:14:25;;;;;;;4.95;1.10;;;10.40;72.80;;;;;;4947006;29;20035;-65
2021/05/07 05:16:50;;;;;;;3.50;0.90;;;10.40;72.40;;;;;;4945392;29;20036;-65
2021/05/07 05:19:16;;;;;;;2.63;0.80;;;10.40;72.70;;;;;;4944861;29;20036;-65
2021/05/07 05:21:41;;;;;;;2.17;1.00;;;10.40;72.40;;;;;;4945843;29;20035;-65
2021/05/07 05:24:07;;;;;;;3.10;0.70;;;10.30;72.40;;;;;;4945285;29;20063;-65
2021/05/07 05:26:33;;;;;;;2.88;1.20;;;10.30;72.70;;;;;;4945375;29;20267;-65
2021/05/07 05:28:58;;;;;;;4.05;0.75;;;10.30;73.10;;;;;;4947085;29;20038;-65
2021/05/07 05:31:24;;;;;;;1.52;0.65;;;10.30;72.80;;;;;;4945490;29;20044;-65
2021/05/07 05:33:49;;;;;;;3.95;0.68;;;10.30;72.80;;;;;;4945070;29;20140;-65
2021/05/07 05:36:15;;;;;;;4.38;1.00;;;10.20;72.80;;;;;;4945299;29;20039;-66
2021/05/07 05:38:41;;;;;;;1.50;0.70;;;10.20;73.00;;;;;;4945062;29;20099;-66
2021/05/07 05:41:07;;;;;;;1.58;0.90;;;10.20;72.90;;;;;;4947021;29;20075;-66
2021/05/07 05:43:33;;;;;;;2.28;0.68;;;10.10;72.80;;;;;;4945423;29;20111;-66
2021/05/07 05:45:58;;;;;;;3.00;1.30;;;10.10;73.60;;;;;;4945190;29;20331;-66
2021/05/07 05:48:24;;;;;;;5.05;1.20;;;10.10;73.70;;;;;;4945201;29;20027;-66
2021/05/07 05:50:52;;;;;;;2.85;0.85;;;10.10;73.90;;;;;;4944802;29;20047;-67
2021/05/07 05:53:18;;;;;;;1.50;0.68;;;10.10;74.00;;;;;;4947126;29;20055;-66
2021/05/07 05:55:43;;;;;;;2.53;0.70;;;10.10;73.80;;;;;;4945284;29;20044;-66
2021/05/07 05:58:09;;;;;;;2.53;0.70;;;10.00;73.60;;;;;;4944923;29;20048;-66
2021/05/07 06:00:35;;;;;;;1.33;0.57;;;9.90;74.30;;;;;;4944858;29;20231;-66
2021/05/07 06:03:00;;;;;;;3.60;0.68;;;9.90;73.70;;;;;;4944923;29;20039;-66
2021/05/07 06:05:26;;;;;;;1.58;0.57;;;9.90;73.90;;;;;;4946464;29;20067;-66
2021/05/07 06:07:52;;;;;;;1.95;0.70;;;9.80;74.10;;;;;;4928926;29;20066;-66
2021/05/07 06:10:18;;;;;;;1.75;0.60;;;9.90;74.70;;;;;;4945132;29;20047;-66
2021/05/07 06:12:44;;;;;;;2.45;0.75;;;9.90;74.30;;;;;;4944821;29;20036;-66
2021/05/07 06:15:10;;;;;;;2.60;1.17;;;9.90;74.40;;;;;;4944977;29;20035;-66
2021/05/07 06:17:36;;;;;;;2.55;0.70;;;9.90;74.30;;;;;;4944930;29;20035;-67
2021/05/07 06:20:03;;;;;;;1.05;0.63;;;9.90;74.70;;;;;;4946373;29;20047;-67
2021/05/07 06:22:32;;;;;;;3.28;0.50;;;9.90;74.90;;;;;;4945124;29;20039;-66
2021/05/07 06:24:58;;;;;;;1.25;0.50;;;10.00;75.00;;;;;;4928003;29;20048;-66
2021/05/07 06:27:23;;;;;;;1.95;0.60;;;10.10;74.80;;;;;;4944694;29;20060;-67
2021/05/07 06:29:49;;;;;;;1.20;0.50;;;10.10;74.40;;;;;;4944579;29;20327;-67
2021/05/07 06:32:14;;;;;;;0.60;0.40;;;10.30;74.40;;;;;;4950362;29;20031;-66
2021/05/07 06:34:40;;;;;;;1.45;0.60;;;10.30;74.20;;;;;;4948802;29;20043;-66
2021/05/07 06:37:05;;;;;;;0.95;0.60;;;10.40;74.10;;;;;;4948319;29;20070;-66
2021/05/07 06:39:31;;;;;;;2.15;0.60;;;10.40;74.20;;;;;;4948372;29;20046;-66
2021/05/07 06:41:57;;;;;;;1.15;0.50;;;10.60;74.20;;;;;;4948001;29;20110;-66
2021/05/07 06:44:24;;;;;;;1.10;0.50;;;10.60;74.40;;;;;;4949897;29;20031;-66
2021/05/07 06:46:49;;;;;;;0.50;0.38;;;10.60;74.10;;;;;;4948003;29;20043;-66
2021/05/07 06:49:15;;;;;;;1.85;0.60;;;10.60;74.20;;;;;;4948159;29;20126;-66
2021/05/07 06:51:40;;;;;;;0.60;0.47;;;10.60;74.90;;;;;;4947845;29;20063;-66
2021/05/07 06:54:08;;;;;;;0.80;0.45;;;10.60;73.90;;;;;;4947378;29;20027;-65
2021/05/07 06:56:34;;;;;;;1.88;0.50;;;10.70;74.40;;;;;;4948078;29;20047;-66
2021/05/07 06:58:59;;;;;;;1.85;0.45;;;10.80;73.80;;;;;;4949342;29;20060;-66
2021/05/07 07:01:25;;;;;;;0.50;0.38;;;10.80;73.40;;;;;;4947889;29;20338;-67
2021/05/07 07:03:51;;;;;;;0.77;0.40;;;10.80;73.40;;;;;;4948160;29;20099;-65
2021/05/07 07:06:17;;;;;;;0.32;0.32;;;10.90;73.80;;;;;;4947664;29;20238;-66
2021/05/07 07:08:43;;;;;;;0.65;0.40;;;11.00;73.70;;;;;;4947765;29;20028;-65
2021/05/07 07:11:08;;;;;;;0.95;0.40;;;11.00;72.50;;;;;;4949542;29;20035;-65
2021/05/07 07:13:34;;;;;;;0.90;0.40;;;11.20;74.80;;;;;;4948119;29;20035;-65
2021/05/07 07:15:59;;;;;;;0.30;0.30;;;11.30;73.20;;;;;;4947817;29;20039;-67
2021/05/07 07:18:25;;;;;;;2.00;0.40;;;11.40;72.70;;;;;;4947647;29;20334;-67
2021/05/07 07:20:50;;;;;;;1.63;0.47;;;11.50;73.30;;;;;;4947757;29;20047;-66
2021/05/07 07:23:16;;;;;;;0.55;0.30;;;11.60;72.60;;;;;;4949427;29;20091;-67
2021/05/07 07:25:42;;;;;;;0.60;0.40;;;11.60;72.40;;;;;;4947696;29;20039;-65
2021/05/07 07:28:07;;;;;;;1.33;0.50;;;11.70;72.20;;;;;;4947694;29;20032;-65
2021/05/07 07:30:33;;;;;;;2.67;0.50;;;11.60;71.50;;;;;;4947345;29;20048;-65
2021/05/07 07:32:59;;;;;;;0.68;0.50;;;11.60;71.60;;;;;;4947230;29;20331;-66
2021/05/07 07:35:25;;;;;;;1.83;0.60;;;11.50;72.00;;;;;;4949047;29;20051;-65
2021/05/07 07:37:50;;;;;;;1.35;0.50;;;11.40;71.70;;;;;;4947110;29;20136;-65
2021/05/07 07:40:16;;;;;;;3.50;0.50;;;11.50;72.10;;;;;;4947423;29;20042;-65
2021/05/07 07:42:42;;;;;;;2.47;0.60;;;11.40;71.30;;;;;;4946358;29;20043;-65
2021/05/07 07:45:11;;;;;;;2.47;0.60;;;11.40;71.90;;;;;;4947129;29;20039;-64
2021/05/07 07:47:36;;;;;;;4.10;1.25;;;11.50;72.30;;;;;;4946940;29;20072;-66
2021/05/07 07:50:03;;;;;;;2.50;0.90;;;11.50;72.20;;;;;;4948899;29;20032;-66
2021/05/07 07:52:30;;;;;;;2.90;1.00;;;11.60;72.10;;;;;;4947408;29;20058;-66
2021/05/07 07:54:56;;;;;;;2.92;1.17;;;11.60;72.60;;;;;;4946972;29;20035;-66
2021/05/07 07:57:21;;;;;;;4.05;0.80;;;11.60;72.90;;;;;;4946995;29;20128;-66
2021/05/07 07:59:47;;;;;;;5.95;1.25;;;11.60;73.10;;;;;;4946946;29;20103;-66
2021/05/07 08:02:12;;;;;;;5.78;1.15;;;11.60;73.20;;;;;;4949181;29;20036;-66
2021/05/07 08:04:38;;;;;;;6.07;1.00;;;11.60;73.30;;;;;;4947167;29;20032;-66
2021/05/07 08:07:03;;;;;;;3.10;0.88;;;11.50;73.00;;;;;;4947147;29;20107;-66
2021/05/07 08:09:29;;;;;;;7.63;1.65;;;11.50;73.80;;;;;;4946536;29;20035;-66
2021/05/07 08:11:54;;;;;;;2.50;0.90;;;11.50;73.80;;;;;;4946515;29;20038;-66
2021/05/07 08:14:20;;;;;;;2.58;0.82;;;11.50;73.90;;;;;;4948474;29;20024;-66
2021/05/07 08:16:45;;;;;;;2.65;0.90;;;11.50;74.10;;;;;;4946855;29;20115;-67
2021/05/07 08:19:11;;;;;;;3.08;0.85;;;11.50;74.10;;;;;;4946518;29;20036;-67
2021/05/07 08:21:37;;;;;;;2.90;0.80;;;11.20;71.70;;;;;;4946262;29;20035;-67
2021/05/07 08:24:03;;;;;;;2.05;0.60;;;11.10;72.20;;;;;;4946033;29;20079;-66
2021/05/07 08:26:28;;;;;;;0.85;0.60;;;11.00;72.20;;;;;;4946362;29;20090;-65
2021/05/07 08:28:54;;;;;;;0.50;0.40;;;11.00;71.60;;;;;;4948188;29;20039;-65
2021/05/07 08:31:19;;;;;;;0.93;0.50;;;10.90;70.60;;;;;;4946410;29;20054;-65
2021/05/07 08:33:45;;;;;;;1.35;0.52;;;11.00;70.50;;;;;;4946215;29;20043;-65
2021/05/07 08:36:10;;;;;;;1.27;0.47;;;10.90;70.70;;;;;;4946266;29;20212;-64
2021/05/07 08:38:36;;;;;;;0.80;0.45;;;10.70;70.70;;;;;;4946155;29;20028;-65
2021/05/07 08:41:04;;;;;;;0.60;0.50;;;10.60;69.80;;;;;;4947747;29;20099;-65
2021/05/07 08:43:30;;;;;;;1.25;0.50;;;10.60;70.70;;;;;;4946146;29;20082;-65
2021/05/07 08:45:56;;;;;;;1.20;0.60;;;10.60;70.10;;;;;;4946262;29;20035;-65
2021/05/07 08:48:22;;;;;;;2.38;0.50;;;10.60;70.20;;;;;;4946000;29;20040;-65
2021/05/07 08:50:48;;;;;;;0.80;0.40;;;10.40;69.90;;;;;;4928780;29;20043;-66
2021/05/07 08:53:16;;;;;;;0.60;0.40;;;10.40;70.70;;;;;;4947516;29;20027;-66
2021/05/07 08:55:41;;;;;;;0.75;0.55;;;10.40;70.40;;;;;;4946270;29;20047;-66
2021/05/07 08:58:07;;;;;;;2.55;0.90;;;10.40;70.50;;;;;;4945557;29;20027;-65
2021/05/07 09:00:33;;;;;;;3.10;0.77;;;10.50;70.70;;;;;;4945486;29;20059;-66
2021/05/07 09:03:12;;;;;;;3.33;0.73;;;10.50;70.60;;;;;;4945882;29;20107;-67
2021/05/07 09:05:38;;;;;;;4.43;1.25;;;10.50;70.60;;;;;;4945824;29;20023;-66
2021/05/07 09:08:05;;;;;;;1.48;0.50;;;10.50;70.70;;;;;;4947243;29;20083;-65
2021/05/07 09:10:32;;;;;;;0.63;0.50;;;10.30;69.50;;;;;;4928629;29;20039;-65
2021/05/07 09:12:57;;;;;;;1.33;0.60;;;10.30;70.30;;;;;;4945595;29;20039;-65
2021/05/07 09:15:23;;;;;;;1.08;0.60;;;10.30;70.30;;;;;;4945473;29;20208;-65
2021/05/07 09:17:48;;;;;;;1.50;0.52;;;10.30;71.10;;;;;;4945382;29;20035;-65
2021/05/07 09:20:14;;;;;;;2.50;0.60;;;10.40;71.00;;;;;;4930559;29;20040;-65
2021/05/07 09:22:41;;;;;;;1.27;0.70;;;10.40;71.50;;;;;;4945512;29;20062;-65
2021/05/07 09:25:16;;;;;;;1.13;0.60;;;10.50;71.40;;;;;;4945030;29;20040;-67
2021/05/07 09:27:42;;;;;;;0.70;0.40;;;10.70;71.20;;;;;;4945640;29;20044;-66
2021/05/07 09:30:27;;;;;;;2.03;0.90;;;10.80;71.30;;;;;;4945370;29;20051;-66
2021/05/07 09:32:54;;;;;;;0.35;0.30;;;11.00;71.70;;;;;;4928693;29;20335;-66
2021/05/07 09:35:20;;;;;;;0.70;0.50;;;11.10;71.90;;;;;;4947136;29;20346;-66
2021/05/07 09:37:46;;;;;;;0.95;0.40;;;11.10;71.60;;;;;;4945739;29;20042;-66
2021/05/07 09:40:13;;;;;;;1.20;0.52;;;11.10;70.60;;;;;;4945528;29;20059;-66
2021/05/07 09:42:39;;;;;;;1.65;0.90;;;11.00;69.80;;;;;;4944981;29;20103;-66
2021/05/07 09:45:05;;;;;;;0.98;0.60;;;11.00;70.40;;;;;;4945331;29;20059;-65
2021/05/07 09:47:31;;;;;;;0.82;0.50;;;11.00;70.70;;;;;;4945218;29;20035;-66
2021/05/07 09:50:07;;;;;;;0.75;0.60;;;11.00;70.50;;;;;;4946900;29;20039;-66
2021/05/07 09:52:33;;;;;;;1.65;0.70;;;11.00;70.60;;;;;;4945357;29;20047;-66
2021/05/07 09:54:58;;;;;;;0.95;0.50;;;10.90;70.00;;;;;;4945113;29;20039;-66
2021/05/07 09:57:24;;;;;;;1.27;0.60;;;10.90;70.60;;;;;;4945290;29;20043;-65
2021/05/07 09:59:50;;;;;;;4.05;0.68;;;11.00;70.50;;;;;;4944686;29;20051;-65
2021/05/07 10:02:15;;;;;;;1.90;0.60;;;11.00;70.10;;;;;;4914098;29;20042;-66
2021/05/07 10:04:42;;;;;;;1.48;0.50;;;11.00;70.20;;;;;;4945401;29;20046;-66
2021/05/07 10:07:08;;;;;;;1.02;0.50;;;11.00;69.30;;;;;;4948364;29;20076;-66
2021/05/07 10:09:33;;;;;;;0.80;0.40;;;10.90;68.90;;;;;;4948728;29;20063;-66
2021/05/07 10:11:59;;;;;;;0.93;0.52;;;10.90;69.00;;;;;;4931911;29;20039;-66
2021/05/07 10:14:24;;;;;;;0.88;0.50;;;11.00;69.50;;;;;;4933442;29;20348;-67
2021/05/07 10:16:50;;;;;;;1.08;0.60;;;11.00;69.60;;;;;;4932426;29;20055;-67
2021/05/07 10:19:15;;;;;;;2.83;0.75;;;10.90;69.90;;;;;;4948975;29;20034;-67
2021/05/07 10:21:42;;;;;;;3.55;0.60;;;11.10;70.00;;;;;;4931806;29;20388;-67
2021/05/07 10:24:12;;;;;;;1.42;0.60;;;11.10;69.60;;;;;;4931581;29;20031;-66
2021/05/07 10:26:42;;;;;;;0.82;0.70;;;11.10;69.50;;;;;;4931987;29;20035;-66
2021/05/07 10:29:34;;;;;;;1.13;0.70;;;11.10;69.20;;;;;;4933585;29;20028;-66
2021/05/07 10:31:59;;;;;;;2.20;0.80;;;11.20;69.60;;;;;;4945356;29;20042;-66
2021/05/07 10:34:26;;;;;;;0.80;0.70;;;11.30;69.10;;;;;;4948633;29;20098;-65
2021/05/07 10:36:56;;;;;;;1.00;0.70;;;11.20;68.50;;;;;;4948582;29;20471;-65
2021/05/07 10:39:26;;;;;;;1.20;0.70;;;11.20;68.40;;;;;;4948613;29;20042;-66
2021/05/07 10:41:52;;;;;;;0.70;0.60;;;11.20;68.00;;;;;;4948179;29;20379;-65
2021/05/07 10:44:19;;;;;;;1.85;0.70;;;11.20;68.20;;;;;;4933358;29;20039;-66
2021/05/07 10:46:45;;;;;;;1.15;0.63;;;11.10;67.20;;;;;;4948336;29;20353;-66
2021/05/07 10:49:11;;;;;;;0.95;0.63;;;11.10;68.10;;;;;;4947976;29;20047;-66
2021/05/07 10:51:37;;;;;;;1.33;0.60;;;11.00;68.10;;;;;;4948148;29;20044;-65
2021/05/07 10:54:09;;;;;;;0.85;0.70;;;11.20;68.10;;;;;;4948167;29;20030;-65
2021/05/07 10:56:39;;;;;;;1.05;0.60;;;11.30;68.40;;;;;;4947770;29;20035;-65
2021/05/07 10:59:20;;;;;;;1.45;0.70;;;11.40;68.30;;;;;;4949543;29;20134;-66
2021/05/07 11:02:04;;;;;;;1.52;1.00;;;11.50;68.30;;;;;;4948271;29;20107;-66
2021/05/07 11:04:50;;;;;;;1.70;0.90;;;11.70;68.30;;;;;;4947786;29;20035;-66
2021/05/07 11:07:29;;;;;;;1.70;1.30;;;11.80;68.60;;;;;;4947629;29;20035;-65
2021/05/07 11:10:08;;;;;;;1.30;1.02;;;11.90;67.90;;;;;;4947930;29;20047;-64
2021/05/07 11:12:36;;;;;;;1.45;1.13;;;11.90;66.80;;;;;;4948097;29;20035;-64
2021/05/07 11:15:01;;;;;;;1.83;1.17;;;11.90;66.10;;;;;;4947582;29;20099;-66
2021/05/07 11:17:27;;;;;;;1.67;1.20;;;11.90;65.90;;;;;;4930449;29;20024;-67
2021/05/07 11:19:52;;;;;;;2.25;1.20;;;12.10;66.10;;;;;;4949112;29;20043;-66
2021/05/07 11:22:23;;;;;;;1.38;1.00;;;12.00;64.80;;;;;;4947435;29;20063;-67
2021/05/07 11:24:49;;;;;;;1.95;1.25;;;12.10;64.70;;;;;;4930815;29;20054;-66
2021/05/07 11:27:21;;;;;;;1.55;1.23;;;12.10;65.00;;;;;;4947168;29;20043;-66
2021/05/07 11:29:47;;;;;;;3.35;1.50;;;12.10;64.90;;;;;;4947447;29;20086;-66
2021/05/07 11:32:22;;;;;;;2.28;1.48;;;12.00;65.10;;;;;;4949212;29;20292;-68
2021/05/07 11:35:10;;;;;;;2.35;1.75;;;11.90;64.60;;;;;;4947823;29;20040;-66
2021/05/07 11:37:37;;;;;;;2.05;1.50;;;11.90;64.50;;;;;;4947389;29;20036;-67
2021/05/07 11:40:14;;;;;;;2.45;1.60;;;11.80;64.50;;;;;;4930126;29;20048;-66
2021/05/07 11:42:40;;;;;;;2.20;1.60;;;11.80;64.60;;;;;;4947041;29;20044;-66
2021/05/07 11:45:23;;;;;;;2.40;2.17;;;11.80;64.80;;;;;;4946961;29;20063;-66
2021/05/07 11:47:48;;;;;;;2.55;1.90;;;11.80;64.40;;;;;;4947084;29;20044;-66
2021/05/07 11:50:18;;;;;;;3.42;2.40;;;11.80;63.90;;;;;;4948811;29;20366;-66
2021/05/07 11:52:45;;;;;;;3.78;2.47;;;11.70;63.50;;;;;;4947436;29;20031;-66
2021/05/07 11:55:22;;;;;;;2.97;2.47;;;11.60;62.70;;;;;;4947204;29;20036;-66
2021/05/07 11:58:01;;;;;;;3.63;2.30;;;11.60;63.30;;;;;;4946949;29;20098;-66
2021/05/07 12:00:28;;;;;;;2.53;2.30;;;11.60;63.00;;;;;;4947007;29;20047;-64
2021/05/07 12:03:09;;;;;;;4.13;2.85;;;11.40;63.30;;;;;;4946842;29;20315;-66
2021/05/07 12:05:39;;;;;;;3.67;3.08;;;11.40;64.10;;;;;;4946655;29;20090;-65
2021/05/07 12:08:05;;;;;;;6.10;2.58;;;11.40;64.40;;;;;;4948558;29;20028;-66
2021/05/07 12:10:31;;;;;;;3.78;2.72;;;11.40;64.60;;;;;;4947035;29;20055;-66
2021/05/07 12:12:58;;;;;;;3.90;2.35;;;11.20;64.90;;;;;;4946918;29;20059;-66
2021/05/07 12:15:27;;;;;;;3.72;2.70;;;11.10;64.50;;;;;;4929786;29;20263;-66
2021/05/07 12:17:53;;;;;;;3.95;2.78;;;11.00;63.90;;;;;;4946778;29;20106;-66
2021/05/07 12:20:26;;;;;;;3.40;2.92;;;10.80;64.60;;;;;;4948366;29;20130;-66
2021/05/07 12:22:53;;;;;;;3.72;2.80;;;10.80;65.50;;;;;;4946717;29;20044;-66
2021/05/07 12:25:20;;;;;;;4.63;3.15;;;10.80;65.90;;;;;;4946609;29;20102;-66
2021/05/07 12:27:47;;;;;;;3.72;3.00;;;10.70;65.50;;;;;;4929417;29;20066;-66
2021/05/07 12:30:17;;;;;;;4.13;3.17;;;10.70;65.50;;;;;;4946107;29;20036;-66
2021/05/07 12:33:12;;;;;;;3.55;2.90;;;10.60;65.10;;;;;;4946273;29;20042;-66
2021/05/07 12:35:39;;;;;;;4.03;2.97;;;10.60;64.10;;;;;;4945703;29;20050;-66
2021/05/07 12:38:18;;;;;;;3.80;2.75;;;10.40;64.40;;;;;;4947966;29;20226;-66
2021/05/07 12:40:43;;;;;;;4.50;2.97;;;10.40;64.10;;;;;;4946602;29;20323;-66
2021/05/07 12:43:09;;;;;;;5.50;2.90;;;10.30;64.50;;;;;;4946083;29;20039;-66
2021/05/07 12:45:35;;;;;;;5.78;3.53;;;10.30;65.20;;;;;;4945935;29;20055;-66
2021/05/07 12:48:00;;;;;;;5.78;3.70;;;10.30;64.90;;;;;;4946120;29;20043;-66